createdAt,value
2019-05-18T00:03:24.863Z,98931.27
2019-05-18T00:05:53.023Z,98936.56
2019-05-18T00:08:39.395Z,98930.91
2019-05-18T00:11:07.018Z,98930.91
2019-05-18T00:13:53.809Z,98928.89
2019-05-18T00:16:21.455Z,98927.18
2019-05-18T00:18:49.211Z,98935.14
2019-05-18T00:21:35.513Z,98933.81
2019-05-18T00:26:36.496Z,98932.19
2019-05-18T00:29:05.781Z,98932.19
2019-05-18T00:31:52.473Z,98932.94
2019-05-18T00:34:20.251Z,98923.78
2019-05-18T00:36:48.011Z,98923.78
2019-05-18T00:39:15.671Z,98926.66
2019-05-18T00:42:02.028Z,98924.36
2019-05-18T00:44:48.311Z,98934.89
2019-05-18T00:47:15.931Z,98934.89
2019-05-18T00:50:02.280Z,98929.68
2019-05-18T00:52:29.891Z,98929.68
2019-05-18T00:55:16.260Z,98920.09
2019-05-18T00:57:43.944Z,98914.69
2019-05-18T01:03:18.326Z,98917.34
2019-05-18T01:05:46.366Z,98917.34
2019-05-18T01:08:14.031Z,98915.78
2019-05-18T01:10:41.577Z,98909.09
2019-05-18T01:13:09.252Z,98908.86
2019-05-18T01:15:36.795Z,98910.81
2019-05-18T01:18:23.199Z,98905.28
2019-05-18T01:20:50.856Z,98905.28
2019-05-18T01:23:37.179Z,98913.87
2019-05-18T01:26:23.455Z,98906.47
2019-05-18T01:29:02.953Z,98906.47
2019-05-18T01:31:20.426Z,98908.19
2019-05-18T01:34:06.836Z,98906.08
2019-05-18T01:36:36.935Z,98906.08
2019-05-18T01:39:23.335Z,98902.23
2019-05-18T01:41:50.903Z,98902.23
2019-05-18T01:44:37.182Z,98910.41
2019-05-18T01:47:25.862Z,98917.27
2019-05-18T01:50:12.510Z,98915.55
2019-05-18T01:52:40.542Z,98910.60
2019-05-18T01:58:32.018Z,98905.61
2019-05-18T02:01:21.184Z,98909.44
2019-05-18T02:03:49.212Z,98913.59
2019-05-18T02:06:16.774Z,98913.59
2019-05-18T02:08:44.947Z,98908.23
2019-05-18T02:11:31.366Z,98901.58
2019-05-18T02:13:58.997Z,98900.42
2019-05-18T02:16:48.286Z,98904.97
2019-05-18T02:19:17.907Z,98904.97
2019-05-18T02:21:45.452Z,98905.89
2019-05-18T02:24:31.881Z,98906.23
2019-05-18T02:26:59.492Z,98906.23
2019-05-18T02:29:46.116Z,98899.33
2019-05-18T02:32:13.980Z,98899.33
2019-05-18T02:34:41.740Z,98897.08
2019-05-18T02:37:28.430Z,98896.39
2019-05-18T02:42:44.104Z,98895.33
2019-05-18T02:45:30.550Z,98893.41
2019-05-18T02:48:17.228Z,98893.81
2019-05-18T02:53:19.443Z,98889.84
2019-05-18T02:56:05.858Z,98890.02
2019-05-18T02:58:52.276Z,98887.02
2019-05-18T03:01:19.982Z,98887.02
2019-05-18T03:04:06.339Z,98886.94
2019-05-18T03:09:26.180Z,98882.27
2019-05-18T03:12:12.633Z,98883.83
2019-05-18T03:14:40.386Z,98883.83
2019-05-18T03:17:26.801Z,98874.55
2019-05-18T03:19:54.554Z,98874.55
2019-05-18T03:22:22.305Z,98880.55
2019-05-18T03:25:08.787Z,98872.44
2019-05-18T03:27:36.484Z,98872.44
2019-05-18T03:30:23.192Z,98872.77
2019-05-18T03:35:24.150Z,98871.40
2019-05-18T03:38:10.566Z,98873.66
2019-05-18T03:48:56.698Z,98885.80
2019-05-18T03:51:43.093Z,98885.78
2019-05-18T03:54:29.784Z,98883.30
2019-05-18T03:56:57.519Z,98883.30
2019-05-18T03:59:44.184Z,98884.84
2019-05-18T04:02:30.628Z,98877.26
2019-05-18T04:04:58.235Z,98877.26
2019-05-18T04:07:45.070Z,98885.63
2019-05-18T04:10:12.814Z,98885.63
2019-05-18T04:15:13.354Z,98878.23
2019-05-18T04:17:41.015Z,98875.39
2019-05-18T04:20:08.674Z,98875.39
2019-05-18T04:22:55.096Z,98880.41
2019-05-18T04:25:22.732Z,98880.60
2019-05-18T04:27:50.378Z,98880.37
2019-05-18T04:30:36.747Z,98880.37
2019-05-18T04:33:23.173Z,98879.29
2019-05-18T04:36:09.565Z,98879.29
2019-05-18T04:38:55.979Z,98873.75
2019-05-18T04:41:23.654Z,98873.75
2019-05-18T04:43:51.319Z,98873.95
2019-05-18T04:46:19.277Z,98880.64
2019-05-18T04:48:48.039Z,98878.98
2019-05-18T04:51:34.391Z,98878.98
2019-05-18T04:54:02.262Z,98881.30
2019-05-18T04:59:16.471Z,98887.89
2019-05-18T05:02:03.175Z,98894.33
2019-05-18T05:04:30.887Z,98894.33
2019-05-18T05:07:17.314Z,98895.32
2019-05-18T05:10:10.030Z,98895.32
2019-05-18T05:12:37.804Z,98905.02
2019-05-18T05:15:24.206Z,98907.05
2019-05-18T05:17:51.826Z,98908.84
2019-05-18T05:20:21.073Z,98908.84
2019-05-18T05:24:12.426Z,98913.14
2019-05-18T05:25:58.389Z,98910.12
2019-05-18T05:29:08.747Z,98905.11
2019-05-18T05:31:45.163Z,98912.37
2019-05-18T05:34:34.059Z,98903.50
2019-05-18T05:40:10.144Z,98898.67
2019-05-18T05:42:37.735Z,98897.49
2019-05-18T05:45:24.156Z,98895.36
2019-05-18T05:47:54.637Z,98895.36
2019-05-18T05:50:55.206Z,98904.49
2019-05-18T05:56:17.133Z,98899.41
2019-05-18T05:58:56.685Z,98898.05
2019-05-18T06:01:32.954Z,98893.36
2019-05-18T06:04:00.598Z,98893.63
2019-05-18T06:06:47.028Z,98891.34
2019-05-18T06:12:34.005Z,98895.78
2019-05-18T06:17:54.829Z,98900.59
2019-05-18T06:20:22.599Z,98903.00
2019-05-18T06:23:09.047Z,98899.36
2019-05-18T06:28:41.954Z,98893.91
2019-05-18T06:31:12.045Z,98893.91
2019-05-18T06:33:39.746Z,98892.12
2019-05-18T06:36:26.112Z,98896.63
2019-05-18T06:38:53.862Z,98897.97
2019-05-18T06:41:40.324Z,98895.83
2019-05-18T06:44:08.013Z,98895.83
2019-05-18T06:46:54.468Z,98896.98
2019-05-18T06:49:22.063Z,98895.62
2019-05-18T06:52:08.518Z,98899.44
2019-05-18T06:54:36.203Z,98904.25
2019-05-18T06:57:22.662Z,98904.34
2019-05-18T06:59:50.236Z,98906.11
2019-05-18T07:02:36.688Z,98899.46
2019-05-18T07:05:05.408Z,98888.89
2019-05-18T07:07:51.811Z,98888.89
2019-05-18T07:13:15.161Z,98889.08
2019-05-18T07:18:34.787Z,98884.23
2019-05-18T07:21:02.620Z,98884.23
2019-05-18T07:23:49.055Z,98891.48
2019-05-18T07:29:33.813Z,98891.62
2019-05-18T07:32:09.898Z,98891.41
2019-05-18T07:34:56.368Z,98887.43
2019-05-18T07:37:24.120Z,98887.43
2019-05-18T07:40:12.532Z,98881.20
2019-05-18T07:42:40.258Z,98870.52
2019-05-18T07:45:26.674Z,98870.52
2019-05-18T07:47:54.429Z,98869.81
2019-05-18T07:50:22.198Z,98869.44
2019-05-18T07:53:08.567Z,98868.97
2019-05-18T07:58:29.196Z,98872.84
2019-05-18T08:04:04.370Z,98873.67
2019-05-18T08:06:32.449Z,98873.84
2019-05-18T08:09:18.839Z,98877.20
2019-05-18T08:11:46.492Z,98870.58
2019-05-18T08:14:32.937Z,98865.70
2019-05-18T08:17:00.632Z,98866.25
2019-05-18T08:19:47.086Z,98869.88
2019-05-18T08:25:24.511Z,98870.94
2019-05-18T08:30:57.516Z,98870.17
2019-05-18T08:33:25.244Z,98874.24
2019-05-18T08:36:11.619Z,98871.82
2019-05-18T08:38:58.419Z,98867.36
2019-05-18T08:41:44.788Z,98867.36
2019-05-18T08:44:12.517Z,98870.06
2019-05-18T08:46:40.509Z,98873.56
2019-05-18T08:49:08.166Z,98873.13
2019-05-18T08:51:37.919Z,98869.95
2019-05-18T08:54:05.936Z,98869.05
2019-05-18T08:56:33.958Z,98869.05
2019-05-18T08:59:03.401Z,98870.02
2019-05-18T09:01:40.508Z,98862.22
2019-05-18T09:04:08.102Z,98867.20
2019-05-18T09:06:35.812Z,98863.20
2019-05-18T09:09:05.522Z,98865.38
2019-05-18T09:11:38.154Z,98865.38
2019-05-18T09:14:05.708Z,98866.28
2019-05-18T09:16:36.580Z,98862.12
2019-05-18T09:19:04.131Z,98862.12
2019-05-18T09:21:31.785Z,98866.50
2019-05-18T09:23:59.785Z,98866.92
2019-05-18T09:26:29.086Z,98866.92
2019-05-18T09:28:56.662Z,98863.19
2019-05-18T09:31:24.657Z,98863.19
2019-05-18T09:33:52.264Z,98864.00
2019-05-18T09:36:20.051Z,98867.56
2019-05-18T09:38:48.170Z,98863.05
2019-05-18T09:41:18.484Z,98868.70
2019-05-18T09:43:46.070Z,98863.95
2019-05-18T09:46:14.116Z,98856.72
2019-05-18T09:48:41.924Z,98865.89
2019-05-18T09:51:09.568Z,98862.38
2019-05-18T09:53:50.474Z,98853.14
2019-05-18T09:56:12.634Z,98854.17
2019-05-18T09:58:41.895Z,98853.70
2019-05-18T10:01:16.155Z,98858.05
2019-05-18T10:03:43.703Z,98862.42
2019-05-18T10:06:13.202Z,98861.89
2019-05-18T10:08:43.088Z,98862.27
2019-05-18T10:11:12.990Z,98863.98
2019-05-18T10:13:40.710Z,98859.80
2019-05-18T10:16:08.733Z,98856.09
2019-05-18T10:18:36.459Z,98858.13
2019-05-18T10:21:04.056Z,98853.10
2019-05-18T10:23:32.002Z,98853.38
2019-05-18T10:25:59.597Z,98855.90
2019-05-18T10:28:27.325Z,98850.72
2019-05-18T10:30:55.241Z,98856.27
2019-05-18T10:33:24.043Z,98855.05
2019-05-18T10:35:51.657Z,98847.53
2019-05-18T10:38:19.583Z,98851.20
2019-05-18T10:40:47.226Z,98851.20
2019-05-18T10:43:16.243Z,98842.46
2019-05-18T10:45:45.155Z,98850.84
2019-05-18T10:48:13.460Z,98850.84
2019-05-18T10:50:44.110Z,98847.56
2019-05-18T10:53:27.511Z,98844.58
2019-05-18T10:55:41.454Z,98844.58
2019-05-18T10:58:09.244Z,98835.20
2019-05-18T11:00:37.245Z,98835.47
2019-05-18T11:03:04.884Z,98844.48
2019-05-18T11:05:32.467Z,98838.69
2019-05-18T11:08:06.142Z,98834.70
2019-05-18T11:10:38.822Z,98836.05
2019-05-18T11:13:08.210Z,98841.05
2019-05-18T11:15:38.418Z,98840.00
2019-05-18T11:18:11.790Z,98835.98
2019-05-18T11:20:38.416Z,98835.98
2019-05-18T11:23:09.299Z,98833.47
2019-05-18T11:25:37.038Z,98833.47
2019-05-18T11:28:04.632Z,98827.01
2019-05-18T11:30:32.742Z,98834.47
2019-05-18T11:33:02.060Z,98827.14
2019-05-18T11:35:29.912Z,98830.23
2019-05-18T11:37:57.853Z,98839.27
2019-05-18T11:40:25.488Z,98839.27
2019-05-18T11:42:53.141Z,98832.47
2019-05-18T11:45:31.376Z,98827.58
2019-05-18T11:47:58.981Z,98824.58
2019-05-18T11:50:27.289Z,98824.58
2019-05-18T11:52:54.863Z,98827.02
2019-05-18T11:55:22.585Z,98828.27
2019-05-18T11:57:52.229Z,98822.03
2019-05-18T12:00:24.859Z,98816.79
2019-05-18T12:02:55.812Z,98815.69
2019-05-18T12:05:25.903Z,98815.69
2019-05-18T12:07:53.480Z,98817.98
2019-05-18T12:10:39.227Z,98813.23
2019-05-18T12:13:06.954Z,98818.16
2019-05-18T12:15:36.284Z,98805.16
2019-05-18T12:18:05.842Z,98804.17
2019-05-18T12:20:33.294Z,98804.69
2019-05-18T12:23:01.593Z,98800.89
2019-05-18T12:25:29.135Z,98797.19
2019-05-18T12:27:58.734Z,98803.99
2019-05-18T12:30:29.863Z,98808.30
2019-05-18T12:32:57.456Z,98808.06
2019-05-18T12:35:25.092Z,98806.20
2019-05-18T12:37:55.556Z,98808.16
2019-05-18T12:40:23.559Z,98812.08
2019-05-18T12:42:54.175Z,98806.41
2019-05-18T12:45:23.332Z,98808.41
2019-05-18T12:47:50.966Z,98808.41
2019-05-18T12:50:23.122Z,98807.03
2019-05-18T12:52:48.370Z,98803.95
2019-05-18T12:55:20.643Z,98800.84
2019-05-18T12:57:48.659Z,98800.84
2019-05-18T13:00:22.203Z,98806.32
2019-05-18T13:02:53.293Z,98810.47
2019-05-18T13:05:20.919Z,98800.25
2019-05-18T13:07:48.534Z,98803.41
2019-05-18T13:10:21.895Z,98803.41
2019-05-18T13:12:52.169Z,98804.15
2019-05-18T13:15:21.429Z,98804.15
2019-05-18T13:17:49.351Z,98804.13
2019-05-18T13:20:17.917Z,98804.13
2019-05-18T13:22:45.544Z,98804.06
2019-05-18T13:25:15.627Z,98806.20
2019-05-18T13:27:43.370Z,98800.83
2019-05-18T13:30:11.362Z,98798.53
2019-05-18T13:32:39.364Z,98802.22
2019-05-18T13:35:06.941Z,98802.22
2019-05-18T13:37:34.579Z,98793.94
2019-05-18T13:40:02.660Z,98796.07
2019-05-18T13:42:31.387Z,98803.09
2019-05-18T13:44:59.313Z,98803.09
2019-05-18T13:47:27.349Z,98815.94
2019-05-18T13:49:58.195Z,98815.94
2019-05-18T13:52:26.335Z,98832.03
2019-05-18T13:55:03.521Z,98843.43
2019-05-18T13:57:30.379Z,98843.43
2019-05-18T13:59:56.572Z,98843.13
2019-05-18T14:02:24.154Z,98847.67
2019-05-18T14:04:51.807Z,98847.67
2019-05-18T14:07:19.827Z,98849.25
2019-05-18T14:09:49.410Z,98855.36
2019-05-18T14:12:17.090Z,98852.39
2019-05-18T14:14:45.091Z,98855.30
2019-05-18T14:17:13.526Z,98855.30
2019-05-18T14:19:41.200Z,98869.67
2019-05-18T14:22:09.164Z,98872.15
2019-05-18T14:24:36.815Z,98878.61
2019-05-18T14:27:04.410Z,98865.08
2019-05-18T14:29:33.515Z,98865.08
2019-05-18T14:32:01.109Z,98858.14
2019-05-18T14:34:28.705Z,98849.48
2019-05-18T14:36:56.647Z,98847.88
2019-05-18T14:39:24.307Z,98847.88
2019-05-18T14:41:51.908Z,98844.42
2019-05-18T14:44:19.956Z,98847.12
2019-05-18T14:46:47.664Z,98849.91
2019-05-18T14:49:15.338Z,98849.91
2019-05-18T14:51:43.394Z,98846.17
2019-05-18T14:54:29.853Z,98844.83
2019-05-18T14:56:57.877Z,98842.77
2019-05-18T14:59:25.540Z,98846.41
2019-05-18T15:01:54.810Z,98849.55
2019-05-18T15:04:22.849Z,98849.52
2019-05-18T15:06:50.492Z,98850.15
2019-05-18T15:09:21.049Z,98851.63
2019-05-18T15:11:56.056Z,98848.12
2019-05-18T15:14:23.609Z,98847.22
2019-05-18T15:16:54.908Z,98847.22
2019-05-18T15:19:22.941Z,98843.94
2019-05-18T15:21:50.618Z,98843.91
2019-05-18T15:24:18.240Z,98843.91
2019-05-18T15:26:46.304Z,98840.66
2019-05-18T15:29:17.414Z,98840.25
2019-05-18T15:31:46.368Z,98839.44
2019-05-18T15:34:14.315Z,98841.95
2019-05-18T15:36:41.941Z,98841.95
2019-05-18T15:39:09.551Z,98850.34
2019-05-18T15:41:37.523Z,98843.80
2019-05-18T15:44:05.089Z,98846.99
2019-05-18T15:46:41.852Z,98846.99
2019-05-18T15:49:09.891Z,98843.61
2019-05-18T15:51:37.521Z,98849.63
2019-05-18T15:54:05.125Z,98845.18
2019-05-18T15:56:33.265Z,98845.18
2019-05-18T15:59:00.893Z,98855.59
2019-05-18T16:01:28.565Z,98847.19
2019-05-18T16:03:56.551Z,98841.58
2019-05-18T16:06:24.114Z,98838.88
2019-05-18T16:08:51.737Z,98834.34
2019-05-18T16:11:24.606Z,98834.34
2019-05-18T16:13:52.328Z,98840.36
2019-05-18T16:16:20.202Z,98832.02
2019-05-18T16:18:48.152Z,98839.85
2019-05-18T16:21:15.781Z,98838.94
2019-05-18T16:23:44.980Z,98840.19
2019-05-18T16:26:21.537Z,98840.19
2019-05-18T16:28:45.041Z,98849.03
2019-05-18T16:31:12.736Z,98844.05
2019-05-18T16:33:55.823Z,98848.09
2019-05-18T16:36:24.725Z,98848.09
2019-05-18T16:38:59.932Z,98851.16
2019-05-18T16:41:27.559Z,98849.16
2019-05-18T16:43:56.479Z,98849.16
2019-05-18T16:46:24.507Z,98846.05
2019-05-18T16:48:52.137Z,98848.78
2019-05-18T16:51:19.695Z,98848.78
2019-05-18T16:53:50.414Z,98857.86
2019-05-18T16:56:18.016Z,98862.22
2019-05-18T16:58:45.663Z,98857.47
2019-05-18T17:01:16.017Z,98861.39
2019-05-18T17:03:43.651Z,98861.39
2019-05-18T17:06:11.230Z,98857.89
2019-05-18T17:08:39.262Z,98847.43
2019-05-18T17:11:06.866Z,98852.17
2019-05-18T17:13:34.536Z,98852.17
2019-05-18T17:16:05.511Z,98846.43
2019-05-18T17:18:38.439Z,98835.46
2019-05-18T17:21:09.102Z,98835.46
2019-05-18T17:23:37.102Z,98838.18
2019-05-18T17:26:04.772Z,98833.36
2019-05-18T17:28:32.465Z,98831.52
2019-05-18T17:31:00.498Z,98843.23
2019-05-18T17:33:31.193Z,98840.05
2019-05-18T17:36:01.009Z,98843.70
2019-05-18T17:38:31.731Z,98848.19
2019-05-18T17:40:59.371Z,98848.66
2019-05-18T17:43:29.788Z,98844.24
2019-05-18T17:46:00.871Z,98845.05
2019-05-18T17:48:28.507Z,98841.34
2019-05-18T17:50:56.157Z,98841.73
2019-05-18T17:53:24.166Z,98837.14
2019-05-18T17:55:51.950Z,98837.03
2019-05-18T17:58:19.582Z,98835.92
2019-05-18T18:00:50.194Z,98836.30
2019-05-18T18:03:17.759Z,98836.30
2019-05-18T18:05:47.327Z,98843.95
2019-05-18T18:08:17.817Z,98846.24
2019-05-18T18:10:47.228Z,98845.43
2019-05-18T18:13:17.949Z,98852.65
2019-05-18T18:16:08.268Z,98853.36
2019-05-18T18:18:15.363Z,98853.05
2019-05-18T18:20:56.218Z,98859.31
2019-05-18T18:23:26.471Z,98855.70
2019-05-18T18:25:54.096Z,98862.36
2019-05-18T18:28:25.983Z,98867.28
2019-05-18T18:30:53.958Z,98863.92
2019-05-18T18:33:21.636Z,98863.98
2019-05-18T18:35:57.330Z,98864.87
2019-05-18T18:38:25.475Z,98864.73
2019-05-18T18:40:53.153Z,98862.61
2019-05-18T18:43:22.445Z,98862.61
2019-05-18T18:45:54.440Z,98869.10
2019-05-18T18:48:26.284Z,98869.10
2019-05-18T18:50:51.340Z,98869.84
2019-05-18T18:53:20.382Z,98873.82
2019-05-18T18:55:49.628Z,98873.82
2019-05-18T18:58:39.133Z,98883.84
2019-05-18T19:01:11.753Z,98883.84
2019-05-18T19:03:42.172Z,98877.20
2019-05-18T19:06:11.839Z,98880.30
2019-05-18T19:08:42.435Z,98879.84
2019-05-18T19:11:11.226Z,98883.78
2019-05-18T19:13:45.660Z,98888.75
2019-05-18T19:16:11.611Z,98894.30
2019-05-18T19:18:42.098Z,98894.30
2019-05-18T19:21:09.795Z,98896.33
2019-05-18T19:23:37.756Z,98897.35
2019-05-18T19:26:05.445Z,98897.35
2019-05-18T19:28:50.851Z,98902.20
2019-05-18T19:31:18.421Z,98904.22
2019-05-18T19:33:46.332Z,98906.58
2019-05-18T19:36:14.005Z,98902.87
2019-05-18T19:38:41.742Z,98922.48
2019-05-18T19:41:09.613Z,98930.86
2019-05-18T19:43:40.290Z,98933.77
2019-05-18T19:46:08.016Z,98933.77
2019-05-18T19:48:35.579Z,98935.16
2019-05-18T19:51:06.052Z,98930.17
2019-05-18T19:53:36.756Z,98934.06
2019-05-18T19:56:04.425Z,98933.95
2019-05-18T19:58:35.079Z,98939.20
2019-05-18T20:01:08.803Z,98938.08
2019-05-18T20:03:41.368Z,98938.08
2019-05-18T20:06:08.969Z,98939.95
2019-05-18T20:08:36.587Z,98951.22
2019-05-18T20:11:04.297Z,98951.22
2019-05-18T20:13:33.327Z,98955.58
2019-05-18T20:16:00.928Z,98955.58
2019-05-18T20:18:29.844Z,98960.62
2019-05-18T20:20:57.765Z,98954.89
2019-05-18T20:23:31.335Z,98957.25
2019-05-18T20:26:00.784Z,98957.25
2019-05-18T20:28:30.901Z,98950.42
2019-05-18T20:31:02.230Z,98948.92
2019-05-18T20:33:33.329Z,98954.77
2019-05-18T20:36:01.370Z,98958.64
2019-05-18T20:38:29.000Z,98958.64
2019-05-18T20:40:56.682Z,98960.86
2019-05-18T20:43:24.617Z,98961.72
2019-05-18T20:45:52.244Z,98960.41
2019-05-18T20:48:21.040Z,98964.95
2019-05-18T20:50:50.470Z,98960.80
2019-05-18T20:53:18.026Z,98964.13
2019-05-18T20:55:47.377Z,98960.80
2019-05-18T20:58:18.492Z,98951.44
2019-05-18T21:00:46.195Z,98951.44
2019-05-18T21:03:14.210Z,98951.47
2019-05-18T21:05:44.148Z,98953.98
2019-05-18T21:08:15.400Z,98946.80
2019-05-18T21:10:43.315Z,98936.75
2019-05-18T21:13:11.297Z,98936.75
2019-05-18T21:15:38.955Z,98930.24
2019-05-18T21:18:08.602Z,98931.25
2019-05-18T21:20:36.299Z,98927.75
2019-05-18T21:23:03.832Z,98925.44
2019-05-18T21:25:40.602Z,98925.44
2019-05-18T21:28:08.248Z,98935.77
2019-05-18T21:30:35.853Z,98935.77
2019-05-18T21:33:12.930Z,98931.94
2019-05-18T21:35:40.490Z,98933.46
2019-05-18T21:38:19.239Z,98933.46
2019-05-18T21:40:47.295Z,98932.94
2019-05-18T21:43:14.997Z,98937.66
2019-05-18T21:45:43.472Z,98941.16
2019-05-18T21:48:14.094Z,98935.81
2019-05-18T21:50:41.872Z,98935.81
2019-05-18T21:53:09.961Z,98934.80
2019-05-18T21:55:37.597Z,98934.80
2019-05-18T21:58:05.244Z,98935.62
2019-05-18T22:00:37.735Z,98931.76
2019-05-18T22:03:06.349Z,98932.77
2019-05-18T22:05:34.038Z,98936.64
2019-05-18T22:08:05.239Z,98935.45
2019-05-18T22:10:32.982Z,98934.42
2019-05-18T22:13:00.918Z,98936.77
2019-05-18T22:15:29.290Z,98932.44
2019-05-18T22:18:22.224Z,98932.44
2019-05-18T22:20:43.271Z,98931.75
2019-05-18T22:23:07.530Z,98922.39
2019-05-18T22:25:36.157Z,98922.39
2019-05-18T22:28:03.999Z,98918.36
2019-05-18T22:30:33.926Z,98922.54
2019-05-18T22:33:01.515Z,98922.54
2019-05-18T22:35:33.477Z,98921.36
2019-05-18T22:41:08.309Z,98920.19
2019-05-18T22:43:54.736Z,98922.02
2019-05-18T22:46:41.140Z,98927.00
2019-05-18T22:49:08.946Z,98927.00
2019-05-18T22:51:55.305Z,98921.64
2019-05-18T22:54:41.745Z,98927.47
2019-05-18T22:57:28.202Z,98926.66
2019-05-18T23:03:03.309Z,98919.28
2019-05-18T23:05:31.087Z,98924.29
2019-05-18T23:08:31.608Z,98920.28
2019-05-18T23:10:59.255Z,98920.28
2019-05-18T23:13:27.171Z,98919.95
2019-05-18T23:15:54.763Z,98919.95
2019-05-18T23:18:22.288Z,98915.94
2019-05-18T23:20:50.335Z,98911.56
2019-05-18T23:23:17.932Z,98911.56
2019-05-18T23:25:45.591Z,98915.42
2019-05-18T23:28:16.825Z,98921.95
2019-05-18T23:30:44.493Z,98913.08
2019-05-18T23:33:15.005Z,98912.59
2019-05-18T23:35:43.037Z,98912.59
2019-05-18T23:38:10.702Z,98912.75
2019-05-18T23:40:38.275Z,98911.23
2019-05-18T23:43:24.695Z,98911.23
2019-05-18T23:45:52.440Z,98912.36
2019-05-18T23:48:39.273Z,98910.54
2019-05-18T23:51:06.909Z,98909.17
2019-05-18T23:53:34.604Z,98900.46
2019-05-18T23:56:21.026Z,98909.48
2019-05-18T23:59:07.397Z,98905.08
